createdAt,value
2023-04-14T00:02:09.543Z,100108.39
2023-04-14T00:04:38.508Z,100108.31
2023-04-14T00:07:07.330Z,100110.67
2023-04-14T00:09:36.316Z,100107.16
2023-04-14T00:12:06.916Z,100100.70
2023-04-14T00:14:36.222Z,100097.62
2023-04-14T00:17:04.957Z,100090.22
2023-04-14T00:19:33.666Z,100082.92
2023-04-14T00:22:02.892Z,100087.07
2023-04-14T00:24:31.588Z,100088.64
2023-04-14T00:27:01.308Z,100089.67
2023-04-14T00:29:30.043Z,100086.67
2023-04-14T00:31:58.776Z,100087.18
2023-04-14T00:34:27.617Z,100085.73
2023-04-14T00:36:56.294Z,100086.24
2023-04-14T00:39:25.147Z,100086.43
2023-04-14T00:41:53.823Z,100081.27
2023-04-14T00:44:23.458Z,100083.65
2023-04-14T00:46:52.882Z,100082.70
2023-04-14T00:49:21.584Z,100083.75
2023-04-14T00:51:50.480Z,100087.38
2023-04-14T00:54:20.037Z,100085.30
2023-04-14T00:56:50.806Z,100083.21
2023-04-14T00:59:19.758Z,100084.86
2023-04-14T01:01:48.445Z,100082.34
2023-04-14T01:04:18.321Z,100083.21
2023-04-14T01:06:47.077Z,100084.94
2023-04-14T01:09:16.528Z,100083.29
2023-04-14T01:11:51.345Z,100082.54
2023-04-14T01:14:48.047Z,100086.44
2023-04-14T01:17:32.023Z,100082.74
2023-04-14T01:20:27.752Z,100083.19
2023-04-14T01:23:11.518Z,100085.89
2023-04-14T01:25:58.851Z,100088.66
2023-04-14T01:28:41.587Z,100089.34
2023-04-14T01:31:24.018Z,100087.94
2023-04-14T01:34:08.530Z,100085.76
2023-04-14T01:36:44.099Z,100081.30
2023-04-14T01:39:19.047Z,100079.63
2023-04-14T01:41:56.755Z,100082.09
2023-04-14T01:44:26.855Z,100082.38
2023-04-14T01:46:59.565Z,100077.59
2023-04-14T01:49:30.501Z,100077.73
2023-04-14T01:52:01.799Z,100073.11
2023-04-14T01:54:32.425Z,100071.14
2023-04-14T01:57:03.933Z,100073.08
2023-04-14T01:59:34.285Z,100077.30
2023-04-14T02:02:07.979Z,100080.55
2023-04-14T02:04:38.505Z,100078.79
2023-04-14T02:07:10.061Z,100079.73
2023-04-14T02:09:42.047Z,100076.46
2023-04-14T02:12:12.753Z,100077.73
2023-04-14T02:14:43.344Z,100077.78
2023-04-14T02:17:13.837Z,100073.89
2023-04-14T02:19:44.347Z,100075.81
2023-04-14T02:22:13.654Z,100078.13
2023-04-14T02:24:42.370Z,100076.66
2023-04-14T02:27:17.078Z,100076.11
2023-04-14T02:29:53.779Z,100072.72
2023-04-14T02:32:27.509Z,100078.23
2023-04-14T02:35:04.636Z,100075.73
2023-04-14T02:37:39.067Z,100072.69
2023-04-14T02:40:14.711Z,100074.72
2023-04-14T02:42:48.206Z,100077.21
2023-04-14T02:45:26.141Z,100080.64
2023-04-14T02:47:58.404Z,100079.82
2023-04-14T02:50:30.385Z,100083.86
2023-04-14T02:53:00.552Z,100084.77
2023-04-14T02:55:30.839Z,100083.42
2023-04-14T02:58:00.529Z,100081.89
2023-04-14T03:00:29.822Z,100079.73
2023-04-14T03:03:01.241Z,100078.84
2023-04-14T03:05:32.356Z,100075.98
2023-04-14T03:08:03.748Z,100086.97
2023-04-14T03:10:33.231Z,100091.04
2023-04-14T03:13:03.462Z,100089.58
2023-04-14T03:15:33.584Z,100087.05
2023-04-14T03:18:03.931Z,100082.33
2023-04-14T03:20:33.687Z,100074.12
2023-04-14T03:23:06.508Z,100068.09
2023-04-14T03:25:38.136Z,100069.11
2023-04-14T03:28:13.643Z,100064.02
2023-04-14T03:30:46.665Z,100060.83
2023-04-14T03:33:20.700Z,100061.16
2023-04-14T03:35:50.681Z,100063.73
2023-04-14T03:38:20.842Z,100066.13
2023-04-14T03:40:50.773Z,100064.64
2023-04-14T03:43:22.716Z,100065.05
2023-04-14T03:45:52.542Z,100065.45
2023-04-14T03:48:26.230Z,100066.80
2023-04-14T03:50:57.796Z,100059.70
2023-04-14T03:53:29.588Z,100056.55
2023-04-14T03:55:59.959Z,100055.97
2023-04-14T03:58:30.016Z,100052.55
2023-04-14T04:00:59.592Z,100057.61
2023-04-14T04:03:29.586Z,100058.01
2023-04-14T04:05:58.994Z,100061.98
2023-04-14T04:08:28.762Z,100065.83
2023-04-14T04:10:58.054Z,100068.20
2023-04-14T04:13:27.777Z,100067.64
2023-04-14T04:15:58.834Z,100070.84
2023-04-14T04:18:29.433Z,100072.14
2023-04-14T04:21:00.125Z,100077.86
2023-04-14T04:23:32.533Z,100075.98
2023-04-14T04:26:02.075Z,100074.19
2023-04-14T04:28:31.716Z,100075.98
2023-04-14T04:31:01.165Z,100074.04
2023-04-14T04:33:30.418Z,100075.91
2023-04-14T04:36:00.622Z,100077.73
2023-04-14T04:38:29.270Z,100075.67
2023-04-14T04:40:58.256Z,100075.35
2023-04-14T04:43:26.898Z,100071.66
2023-04-14T04:45:58.318Z,100074.64
2023-04-14T04:48:27.045Z,100073.48
2023-04-14T04:50:55.862Z,100077.70
2023-04-14T04:53:24.606Z,100074.33
2023-04-14T04:55:53.295Z,100075.21
2023-04-14T04:58:21.935Z,100073.99
2023-04-14T05:00:50.585Z,100080.28
2023-04-14T05:03:19.288Z,100075.64
2023-04-14T05:05:47.998Z,100073.09
2023-04-14T05:08:16.753Z,100068.29
2023-04-14T05:10:45.772Z,100065.13
2023-04-14T05:13:14.445Z,100065.72
2023-04-14T05:15:43.402Z,100062.64
2023-04-14T05:18:12.105Z,100061.48
2023-04-14T05:20:40.978Z,100057.77
2023-04-14T05:23:09.667Z,100055.90
2023-04-14T05:25:38.467Z,100055.41
2023-04-14T05:28:08.360Z,100054.09
2023-04-14T05:30:37.050Z,100056.73
2023-04-14T05:33:05.827Z,100058.00
2023-04-14T05:35:34.515Z,100058.90
2023-04-14T05:38:03.197Z,100058.54
2023-04-14T05:40:34.729Z,100056.77
2023-04-14T05:43:03.870Z,100047.52
2023-04-14T05:45:33.407Z,100048.48
2023-04-14T05:48:02.297Z,100046.29
2023-04-14T05:50:30.994Z,100044.65
2023-04-14T05:52:59.933Z,100043.45
2023-04-14T05:55:28.600Z,100040.67
2023-04-14T05:57:57.250Z,100036.83
2023-04-14T06:00:25.992Z,100034.92
2023-04-14T06:02:54.987Z,100032.73
2023-04-14T06:05:25.259Z,100029.97
2023-04-14T06:07:54.061Z,100037.23
2023-04-14T06:10:22.765Z,100038.91
2023-04-14T06:12:51.500Z,100036.27
2023-04-14T06:15:20.277Z,100039.60
2023-04-14T06:17:49.092Z,100037.95
2023-04-14T06:20:18.765Z,100036.83
2023-04-14T06:22:48.050Z,100039.67
2023-04-14T06:25:16.925Z,100038.09
2023-04-14T06:27:45.669Z,100034.40
2023-04-14T06:30:16.905Z,100034.77
2023-04-14T06:32:46.601Z,100031.14
2023-04-14T06:35:29.681Z,100029.10
2023-04-14T06:38:02.361Z,100027.02
2023-04-14T06:40:31.259Z,100028.11
2023-04-14T06:42:59.921Z,100033.91
2023-04-14T06:45:28.624Z,100030.26
2023-04-14T06:47:57.452Z,100032.49
2023-04-14T06:50:26.128Z,100026.63
2023-04-14T06:52:54.785Z,100025.17
2023-04-14T06:55:23.447Z,100018.83
2023-04-14T06:57:52.126Z,100017.58
2023-04-14T07:00:21.259Z,100011.19
2023-04-14T07:02:49.987Z,100010.94
2023-04-14T07:05:19.408Z,100007.52
2023-04-14T07:07:48.101Z,100007.30
2023-04-14T07:10:16.815Z,100005.20
2023-04-14T07:12:45.671Z,99999.91
2023-04-14T07:15:14.461Z,99998.67
2023-04-14T07:17:43.198Z,99996.95
2023-04-14T07:20:12.001Z,99995.64
2023-04-14T07:22:40.745Z,99989.44
2023-04-14T07:25:09.590Z,99988.98
2023-04-14T07:27:38.330Z,99994.27
2023-04-14T07:30:07.944Z,99987.10
2023-04-14T07:32:37.348Z,99981.88
2023-04-14T07:35:10.964Z,99981.11
2023-04-14T07:37:39.721Z,99979.85
2023-04-14T07:40:09.207Z,99979.39
2023-04-14T07:42:37.935Z,99977.02
2023-04-14T07:45:07.848Z,99968.00
2023-04-14T07:47:37.416Z,99968.40
2023-04-14T07:50:06.708Z,99968.87
2023-04-14T07:52:35.430Z,99963.60
2023-04-14T07:55:04.658Z,99962.20
2023-04-14T07:57:34.458Z,99965.34
2023-04-14T08:00:04.085Z,99963.27
2023-04-14T08:02:32.977Z,99965.37
2023-04-14T08:05:02.549Z,99963.17
2023-04-14T08:07:32.152Z,99966.27
2023-04-14T08:10:01.166Z,99964.13
2023-04-14T08:12:29.901Z,99966.66
2023-04-14T08:14:58.582Z,99967.41
2023-04-14T08:17:27.338Z,99964.70
2023-04-14T08:19:56.109Z,99964.66
2023-04-14T08:22:25.679Z,99963.95
2023-04-14T08:24:54.361Z,99964.35
2023-04-14T08:27:23.105Z,99961.48
2023-04-14T08:29:51.846Z,99961.30
2023-04-14T08:32:20.766Z,99961.75
2023-04-14T08:35:39.096Z,99957.72
2023-04-14T08:37:38.157Z,99959.42
2023-04-14T08:40:10.300Z,99956.19
2023-04-14T08:42:39.083Z,99959.82
2023-04-14T08:45:08.115Z,99960.23
2023-04-14T08:47:39.661Z,99966.32
2023-04-14T08:50:22.052Z,99967.03
2023-04-14T08:52:56.843Z,99966.95
2023-04-14T08:55:26.477Z,99969.39
2023-04-14T08:57:56.061Z,99971.92
2023-04-14T09:00:25.529Z,99968.81
2023-04-14T09:02:56.088Z,99970.10
2023-04-14T09:05:25.618Z,99966.39
2023-04-14T09:07:54.305Z,99964.14
2023-04-14T09:10:23.305Z,99961.25
2023-04-14T09:12:52.784Z,99969.72
2023-04-14T09:15:21.683Z,99972.89
2023-04-14T09:17:51.070Z,99971.35
2023-04-14T09:20:38.393Z,99971.61
2023-04-14T09:23:10.306Z,99967.41
2023-04-14T09:25:40.908Z,99969.58
2023-04-14T09:28:11.006Z,99970.50
2023-04-14T09:30:40.360Z,99973.70
2023-04-14T09:35:55.550Z,99972.70
2023-04-14T09:38:39.567Z,99973.84
2023-04-14T09:41:08.836Z,99972.59
2023-04-14T09:43:37.637Z,99971.14
2023-04-14T09:46:08.666Z,99968.41
2023-04-14T09:48:56.885Z,99966.10
2023-04-14T09:51:29.872Z,99963.05
2023-04-14T09:54:05.363Z,99964.19
2023-04-14T09:56:34.482Z,99961.81
2023-04-14T09:59:03.978Z,99961.35
2023-04-14T10:01:34.244Z,99961.17
2023-04-14T10:04:03.872Z,99962.81
2023-04-14T10:06:32.651Z,99962.06
2023-04-14T10:09:01.814Z,99959.18
2023-04-14T10:11:35.547Z,99954.83
2023-04-14T10:14:06.456Z,99953.83
2023-04-14T10:16:36.001Z,99952.08
2023-04-14T10:19:05.824Z,99955.73
2023-04-14T10:21:35.705Z,99952.70
2023-04-14T10:24:04.844Z,99949.08
2023-04-14T10:26:34.830Z,99947.83
2023-04-14T10:29:03.711Z,99947.23
2023-04-14T10:31:36.976Z,99945.92
2023-04-14T10:34:09.428Z,99946.02
2023-04-14T10:36:38.913Z,99942.16
2023-04-14T10:39:08.404Z,99934.55
2023-04-14T10:41:48.618Z,99932.60
2023-04-14T10:44:35.466Z,99929.17
2023-04-14T10:47:07.484Z,99931.41
2023-04-14T10:49:41.064Z,99928.30
2023-04-14T10:52:12.659Z,99924.83
2023-04-14T10:54:57.249Z,99924.33
2023-04-14T10:57:27.957Z,99917.67
2023-04-14T11:00:00.446Z,99918.23
2023-04-14T11:02:34.460Z,99921.05
2023-04-14T11:05:11.585Z,99925.78
2023-04-14T11:07:47.662Z,99916.77
2023-04-14T11:10:19.484Z,99917.89
2023-04-14T11:13:02.120Z,99918.48
2023-04-14T11:15:50.404Z,99919.73
2023-04-14T11:18:28.261Z,99914.37
2023-04-14T11:21:07.403Z,99911.44
2023-04-14T11:23:38.265Z,99910.56
2023-04-14T11:26:09.448Z,99904.72
2023-04-14T11:28:40.725Z,99906.45
2023-04-14T11:31:12.092Z,99899.77
2023-04-14T11:33:42.207Z,99900.34
2023-04-14T11:36:12.822Z,99896.80
2023-04-14T11:38:42.917Z,99891.33
2023-04-14T11:41:15.314Z,99885.89
2023-04-14T11:43:47.071Z,99879.75
2023-04-14T11:46:19.797Z,99876.52
2023-04-14T11:48:54.177Z,99877.09
2023-04-14T11:51:30.611Z,99870.94
2023-04-14T11:54:00.647Z,99867.50
2023-04-14T11:56:31.008Z,99867.14
2023-04-14T11:59:02.061Z,99865.02
2023-04-14T12:01:31.629Z,99869.60
2023-04-14T12:04:00.611Z,99869.25
2023-04-14T12:06:36.576Z,99863.72
2023-04-14T12:09:09.032Z,99865.98
2023-04-14T12:11:38.271Z,99864.69
2023-04-14T12:14:07.210Z,99865.11
2023-04-14T12:16:36.128Z,99864.05
2023-04-14T12:19:05.218Z,99865.02
2023-04-14T12:21:34.121Z,99862.58
2023-04-14T12:24:02.940Z,99858.16
2023-04-14T12:26:32.666Z,99852.35
2023-04-14T12:29:02.107Z,99843.17
2023-04-14T12:31:31.496Z,99840.50
2023-04-14T12:34:03.672Z,99842.70
2023-04-14T12:36:48.752Z,99835.77
2023-04-14T12:39:19.519Z,99835.06
2023-04-14T12:41:48.832Z,99828.80
2023-04-14T12:44:20.527Z,99821.79
2023-04-14T12:46:53.742Z,99816.41
2023-04-14T12:49:33.351Z,99814.77
2023-04-14T12:52:07.950Z,99810.91
2023-04-14T12:54:52.100Z,99816.41
2023-04-14T12:57:21.938Z,99813.88
2023-04-14T12:59:50.975Z,99807.75
2023-04-14T13:02:19.869Z,99805.46
2023-04-14T13:04:49.496Z,99807.34
2023-04-14T13:07:18.758Z,99805.58
2023-04-14T13:09:47.711Z,99807.02
2023-04-14T13:12:16.479Z,99809.94
2023-04-14T13:14:45.318Z,99809.95
2023-04-14T13:17:14.108Z,99802.41
2023-04-14T13:19:43.441Z,99799.19
2023-04-14T13:22:13.596Z,99796.13
2023-04-14T13:24:42.556Z,99792.98
2023-04-14T13:27:11.703Z,99794.55
2023-04-14T13:29:42.200Z,99795.27
2023-04-14T13:32:12.084Z,99792.11
2023-04-14T13:34:40.959Z,99792.13
2023-04-14T13:37:09.638Z,99783.44
2023-04-14T13:39:38.335Z,99785.31
2023-04-14T13:42:06.993Z,99786.59
2023-04-14T13:44:35.825Z,99783.83
2023-04-14T13:47:04.604Z,99779.31
2023-04-14T13:49:33.266Z,99772.98
2023-04-14T13:52:01.993Z,99779.29
2023-04-14T13:54:30.745Z,99775.10
2023-04-14T13:56:59.463Z,99768.52
2023-04-14T13:59:28.177Z,99761.27
2023-04-14T14:01:56.960Z,99765.83
2023-04-14T14:04:26.360Z,99764.11
2023-04-14T14:06:55.212Z,99766.84
2023-04-14T14:09:24.173Z,99769.73
2023-04-14T14:11:52.865Z,99766.30
2023-04-14T14:14:22.567Z,99762.48
2023-04-14T14:16:51.428Z,99762.81
2023-04-14T14:19:20.132Z,99767.78
2023-04-14T14:21:48.812Z,99771.80
2023-04-14T14:24:17.488Z,99771.05
2023-04-14T14:26:46.236Z,99769.52
2023-04-14T14:29:14.913Z,99770.02
2023-04-14T14:31:43.607Z,99765.46
2023-04-14T14:34:12.246Z,99765.25
2023-04-14T14:36:40.953Z,99766.50
2023-04-14T14:39:09.948Z,99765.86
2023-04-14T14:41:39.340Z,99767.60
2023-04-14T14:44:08.036Z,99770.16
2023-04-14T14:46:36.887Z,99765.88
2023-04-14T14:49:05.954Z,99766.05
2023-04-14T14:51:35.114Z,99761.33
2023-04-14T14:54:09.805Z,99762.10
2023-04-14T14:56:39.400Z,99758.41
2023-04-14T14:59:10.818Z,99763.26
2023-04-14T15:01:39.542Z,99756.88
2023-04-14T15:04:08.423Z,99760.52
2023-04-14T15:06:37.696Z,99762.33
2023-04-14T15:09:06.600Z,99763.91
2023-04-14T15:11:35.587Z,99763.05
2023-04-14T15:14:04.549Z,99763.52
2023-04-14T15:16:33.459Z,99760.36
2023-04-14T15:19:02.195Z,99758.52
2023-04-14T15:21:32.673Z,99760.08
2023-04-14T15:24:01.788Z,99763.60
2023-04-14T15:26:31.035Z,99762.23
2023-04-14T15:28:59.745Z,99761.48
2023-04-14T15:31:29.217Z,99762.80
2023-04-14T15:34:04.976Z,99764.28
2023-04-14T15:36:33.865Z,99768.90
2023-04-14T15:39:02.599Z,99771.64
2023-04-14T15:41:31.288Z,99769.03
2023-04-14T15:44:00.167Z,99769.20
2023-04-14T15:46:29.176Z,99769.40
2023-04-14T15:48:58.829Z,99772.86
2023-04-14T15:51:27.600Z,99773.90
2023-04-14T15:53:56.239Z,99776.17
2023-04-14T15:56:25.922Z,99775.95
2023-04-14T15:58:54.741Z,99783.73
2023-04-14T16:01:23.560Z,99783.55
2023-04-14T16:03:52.936Z,99785.42
2023-04-14T16:06:21.872Z,99782.87
2023-04-14T16:08:50.544Z,99782.11
2023-04-14T16:11:19.638Z,99783.14
2023-04-14T16:13:48.905Z,99771.94
2023-04-14T16:16:17.833Z,99779.59
2023-04-14T16:18:47.412Z,99785.03
2023-04-14T16:21:16.408Z,99785.39
2023-04-14T16:23:45.118Z,99786.84
2023-04-14T16:26:13.892Z,99790.79
2023-04-14T16:28:43.511Z,99788.07
2023-04-14T16:31:12.696Z,99790.94
2023-04-14T16:33:41.714Z,99788.93
2023-04-14T16:36:11.326Z,99787.23
2023-04-14T16:38:39.993Z,99793.01
2023-04-14T16:41:08.700Z,99795.70
2023-04-14T16:43:37.376Z,99794.85
2023-04-14T16:46:08.035Z,99796.85
2023-04-14T16:48:37.255Z,99795.75
2023-04-14T16:51:08.301Z,99799.80
2023-04-14T16:53:38.911Z,99796.82
2023-04-14T16:56:08.875Z,99801.98
2023-04-14T16:58:38.129Z,99798.90
2023-04-14T17:01:07.715Z,99800.15
2023-04-14T17:03:36.883Z,99799.20
2023-04-14T17:06:06.003Z,99802.20
2023-04-14T17:08:34.708Z,99799.05
2023-04-14T17:11:03.594Z,99803.64
2023-04-14T17:13:32.327Z,99806.58
2023-04-14T17:16:08.356Z,99805.30
2023-04-14T17:18:38.499Z,99809.00
2023-04-14T17:21:07.251Z,99811.89
2023-04-14T17:23:37.706Z,99812.43
2023-04-14T17:26:06.723Z,99816.35
2023-04-14T17:28:35.917Z,99816.95
2023-04-14T17:31:13.429Z,99818.40
2023-04-14T17:33:43.944Z,99818.14
2023-04-14T17:36:15.094Z,99820.97
2023-04-14T17:38:44.663Z,99822.06
2023-04-14T17:41:13.991Z,99823.25
2023-04-14T17:43:42.690Z,99821.58
2023-04-14T17:46:11.882Z,99826.71
2023-04-14T17:48:41.080Z,99825.33
2023-04-14T17:51:10.733Z,99825.85
2023-04-14T17:53:39.718Z,99827.39
2023-04-14T17:56:08.662Z,99830.66
2023-04-14T17:58:37.402Z,99832.14
2023-04-14T18:01:06.109Z,99825.11
2023-04-14T18:03:35.126Z,99828.77
2023-04-14T18:06:03.938Z,99823.02
2023-04-14T18:08:32.613Z,99826.14
2023-04-14T18:11:01.309Z,99828.64
2023-04-14T18:13:30.025Z,99828.02
2023-04-14T18:15:58.713Z,99824.55
2023-04-14T18:18:27.738Z,99823.42
2023-04-14T18:20:56.427Z,99821.13
2023-04-14T18:23:25.212Z,99821.77
2023-04-14T18:28:32.964Z,99826.64
2023-04-14T18:31:01.770Z,99823.77
2023-04-14T18:33:31.114Z,99821.39
2023-04-14T18:36:03.273Z,99825.05
2023-04-14T18:38:31.940Z,99825.11
2023-04-14T18:41:02.460Z,99827.85
2023-04-14T18:43:32.696Z,99825.80
2023-04-14T18:46:01.515Z,99827.93
2023-04-14T18:48:30.260Z,99827.29
2023-04-14T18:51:02.455Z,99830.25
2023-04-14T18:53:31.974Z,99830.43
2023-04-14T18:56:01.753Z,99829.02
2023-04-14T18:58:31.236Z,99827.33
2023-04-14T19:00:59.903Z,99835.48
2023-04-14T19:03:28.916Z,99837.77
2023-04-14T19:05:58.706Z,99841.90
2023-04-14T19:08:27.413Z,99844.31
2023-04-14T19:10:58.856Z,99842.71
2023-04-14T19:13:27.523Z,99844.90
2023-04-14T19:16:11.553Z,99847.37
2023-04-14T19:18:40.802Z,99845.16
2023-04-14T19:21:09.613Z,99842.30
2023-04-14T19:23:38.351Z,99844.57
2023-04-14T19:26:08.388Z,99847.70
2023-04-14T19:28:39.953Z,99846.98
2023-04-14T19:31:08.708Z,99847.23
2023-04-14T19:33:38.102Z,99846.48
2023-04-14T19:36:17.650Z,99849.54
2023-04-14T19:38:46.499Z,99844.52
2023-04-14T19:41:15.672Z,99845.36
2023-04-14T19:43:45.656Z,99845.19
2023-04-14T19:46:15.068Z,99843.09
2023-04-14T19:48:45.198Z,99846.30
2023-04-14T19:51:13.941Z,99845.01
2023-04-14T19:53:43.538Z,99844.55
2023-04-14T19:56:12.821Z,99848.29
2023-04-14T19:58:41.483Z,99847.96
2023-04-14T20:01:11.268Z,99846.77
2023-04-14T20:04:06.254Z,99837.60
2023-04-14T20:06:29.688Z,99840.67
2023-04-14T20:08:58.444Z,99842.83
2023-04-14T20:11:28.220Z,99838.52
2023-04-14T20:13:56.928Z,99843.62
2023-04-14T20:16:26.478Z,99844.59
2023-04-14T20:18:55.487Z,99846.06
2023-04-14T20:21:24.216Z,99847.03
2023-04-14T20:23:52.888Z,99845.73
2023-04-14T20:26:23.140Z,99849.14
2023-04-14T20:28:51.834Z,99846.73
2023-04-14T20:31:22.216Z,99847.64
2023-04-14T20:33:51.032Z,99850.10
2023-04-14T20:36:19.697Z,99848.98
2023-04-14T20:38:48.339Z,99851.99
2023-04-14T20:41:17.088Z,99853.36
2023-04-14T20:43:45.728Z,99852.75
2023-04-14T20:46:14.504Z,99851.88
2023-04-14T20:48:43.693Z,99853.85
2023-04-14T20:51:12.428Z,99853.36
2023-04-14T20:53:41.081Z,99855.48
2023-04-14T20:56:10.071Z,99857.98
2023-04-14T20:58:38.747Z,99857.77
2023-04-14T21:01:07.595Z,99858.41
2023-04-14T21:03:36.412Z,99859.97
2023-04-14T21:06:05.753Z,99857.61
2023-04-14T21:08:34.501Z,99859.95
2023-04-14T21:11:15.622Z,99857.61
2023-04-14T21:15:26.407Z,99862.91
2023-04-14T21:16:35.905Z,99864.04
2023-04-14T21:19:05.625Z,99864.77
2023-04-14T21:21:34.845Z,99863.03
2023-04-14T21:24:03.735Z,99865.10
2023-04-14T21:26:32.474Z,99863.73
2023-04-14T21:29:01.739Z,99865.81
2023-04-14T21:31:30.884Z,99864.98
2023-04-14T21:34:00.043Z,99865.08
2023-04-14T21:36:28.782Z,99856.52
2023-04-14T21:38:58.048Z,99859.35
2023-04-14T21:41:27.433Z,99860.42
2023-04-14T21:43:56.108Z,99860.73
2023-04-14T21:46:25.327Z,99859.09
2023-04-14T21:48:54.073Z,99860.54
2023-04-14T21:51:22.747Z,99853.33
2023-04-14T21:53:52.151Z,99855.07
2023-04-14T21:56:20.887Z,99857.09
2023-04-14T21:58:49.636Z,99853.77
2023-04-14T22:01:18.368Z,99848.77
2023-04-14T22:03:47.462Z,99850.83
2023-04-14T22:06:17.887Z,99855.14
2023-04-14T22:08:46.582Z,99856.45
2023-04-14T22:11:16.193Z,99857.61
2023-04-14T22:13:45.512Z,99858.02
2023-04-14T22:16:16.410Z,99860.44
2023-04-14T22:18:45.355Z,99857.95
2023-04-14T22:21:16.801Z,99862.92
2023-04-14T22:23:45.450Z,99861.27
2023-04-14T22:26:14.258Z,99863.39
2023-04-14T22:28:42.942Z,99863.48
2023-04-14T22:31:11.810Z,99864.45
2023-04-14T22:33:41.023Z,99862.67
2023-04-14T22:36:09.782Z,99864.86
2023-04-14T22:38:38.476Z,99872.41
2023-04-14T22:41:07.559Z,99868.77
2023-04-14T22:43:36.267Z,99875.02
2023-04-14T22:46:05.034Z,99872.77
2023-04-14T22:48:33.759Z,99878.40
2023-04-14T22:51:02.453Z,99878.91
2023-04-14T22:53:31.405Z,99874.39
2023-04-14T22:56:00.138Z,99872.95
2023-04-14T22:58:31.983Z,99874.95
2023-04-14T23:01:06.541Z,99880.27
2023-04-14T23:03:41.327Z,99877.48
2023-04-14T23:06:10.099Z,99873.73
2023-04-14T23:08:38.850Z,99872.20
2023-04-14T23:11:08.383Z,99871.86
2023-04-14T23:13:37.074Z,99868.58
2023-04-14T23:16:06.231Z,99872.75
2023-04-14T23:18:35.259Z,99868.76
2023-04-14T23:21:04.132Z,99870.18
2023-04-14T23:23:32.786Z,99867.73
2023-04-14T23:26:01.792Z,99866.20
2023-04-14T23:28:30.550Z,99868.30
2023-04-14T23:30:59.646Z,99867.01
2023-04-14T23:33:28.403Z,99866.65
2023-04-14T23:35:57.080Z,99865.80
2023-04-14T23:38:26.274Z,99866.81
2023-04-14T23:40:59.117Z,99863.27
2023-04-14T23:43:29.169Z,99862.10
2023-04-14T23:45:57.990Z,99864.88
2023-04-14T23:48:30.439Z,99863.34
2023-04-14T23:51:13.729Z,99866.64
2023-04-14T23:53:45.397Z,99864.73
2023-04-14T23:56:14.159Z,99864.67
2023-04-14T23:58:43.109Z,99862.30
